Time;durP1;ratioP1;P1;durP2;ratioP2;P2;SDS_P1;SDS_P2;PMS_P1;PMS_P2;Temp;Humidity;BMP_temperature;BMP_pressure;BME280_temperature;BME280_humidity;BME280_pressure;Samples;Min_cycle;Max_cycle;Signal;HPM_P1;HPM_P2
2021/12/14 00:00:58;;;;;;;178.63;30.48;;;4.70;99.90;;;;;;6219762;23;20024;-87
2021/12/14 00:03:50;;;;;;;513.65;46.15;;;4.60;99.90;;;;;;6195119;23;20135;-88
2021/12/14 00:06:39;;;;;;;390.88;38.53;;;4.70;99.90;;;;;;6196433;23;20448;-88
2021/12/14 00:09:34;;;;;;;461.38;43.00;;;4.70;99.90;;;;;;6220818;23;20024;-87
2021/12/14 00:12:43;;;;;;;461.13;43.63;;;4.70;99.90;;;;;;6196074;23;20028;-88
2021/12/14 00:15:32;;;;;;;639.53;51.03;;;4.70;99.90;;;;;;6196381;23;20120;-90
2021/12/14 00:18:20;;;;;;;662.83;51.92;;;4.60;99.90;;;;;;6195528;23;20408;-86
2021/12/14 00:21:19;;;;;;;581.65;46.53;;;4.70;99.90;;;;;;6215893;23;20031;-89
2021/12/14 00:24:14;;;;;;;276.02;35.50;;;4.70;99.90;;;;;;6195116;23;20120;-88
2021/12/14 00:27:07;;;;;;;695.83;55.92;;;4.70;99.90;;;;;;6194352;23;20037;-87
2021/12/14 00:29:58;;;;;;;627.17;49.23;;;4.70;99.90;;;;;;6230577;23;20013;-87
2021/12/14 00:32:45;;;;;;;855.95;61.35;;;4.70;99.90;;;;;;6217916;23;20062;-87
2021/12/14 00:35:32;;;;;;;485.85;39.75;;;4.60;99.90;;;;;;6217884;23;20082;-89
2021/12/14 00:38:22;;;;;;;779.33;59.25;;;4.60;99.90;;;;;;6240762;23;20084;-85
2021/12/14 00:41:15;;;;;;;366.20;35.92;;;4.60;99.90;;;;;;6208263;23;20044;-87
2021/12/14 00:44:06;;;;;;;812.03;55.47;;;4.50;99.90;;;;;;6209655;23;20036;-88
2021/12/14 00:46:55;;;;;;;743.05;59.17;;;4.50;99.90;;;;;;6204717;23;20024;-88
2021/12/14 00:49:43;;;;;;;722.15;55.38;;;4.50;99.90;;;;;;6194517;23;20083;-88
2021/12/14 00:52:31;;;;;;;862.13;61.60;;;4.50;99.90;;;;;;6197943;23;20078;-87
2021/12/14 00:55:30;;;;;;;657.15;46.85;;;4.50;99.90;;;;;;6193844;23;20021;-88
2021/12/14 00:58:20;;;;;;;527.13;40.42;;;4.50;99.90;;;;;;6217810;23;20024;-87
2021/12/14 01:01:37;;;;;;;482.38;36.47;;;4.40;99.90;;;;;;6217499;23;20411;-88
2021/12/14 01:04:32;;;;;;;908.53;67.80;;;4.40;99.90;;;;;;6196133;23;20039;-87
2021/12/14 01:07:24;;;;;;;556.08;43.80;;;4.40;99.90;;;;;;6194356;23;20032;-90
2021/12/14 01:10:32;;;;;;;822.67;54.03;;;4.40;99.90;;;;;;6214518;23;20198;-89
2021/12/14 01:13:25;;;;;;;612.40;40.58;;;4.40;99.90;;;;;;6193694;23;20305;-90
2021/12/14 01:16:29;;;;;;;337.77;35.67;;;4.40;99.90;;;;;;6194811;23;20043;-87
2021/12/14 01:19:26;;;;;;;373.45;34.22;;;4.40;99.90;;;;;;6193946;23;20039;-87
2021/12/14 01:25:37;;;;;;;374.10;30.27;;;4.40;99.90;;;;;;6214714;23;20096;-87
2021/12/14 01:28:28;;;;;;;429.38;28.83;;;4.40;99.90;;;;;;6217385;23;20021;-88
2021/12/14 01:31:29;;;;;;;332.08;27.92;;;4.40;99.90;;;;;;6194257;23;20050;-88
2021/12/14 01:34:22;;;;;;;347.48;29.20;;;4.40;99.90;;;;;;6194717;23;20071;-88
2021/12/14 01:37:15;;;;;;;308.67;28.23;;;4.40;99.90;;;;;;6174597;23;20048;-87
2021/12/14 01:40:17;;;;;;;351.23;29.90;;;4.40;99.90;;;;;;6194696;23;20020;-90
2021/12/14 01:43:06;;;;;;;359.30;26.10;;;4.30;99.90;;;;;;6193657;23;20048;-87
2021/12/14 01:45:57;;;;;;;299.92;28.17;;;4.30;99.90;;;;;;6174922;23;20488;-89
2021/12/14 01:48:47;;;;;;;220.23;22.88;;;4.30;99.90;;;;;;6194545;23;20032;-86
2021/12/14 01:51:41;;;;;;;268.27;25.85;;;4.30;99.90;;;;;;6214927;23;20032;-86
2021/12/14 01:54:34;;;;;;;199.80;20.73;;;4.30;99.90;;;;;;6213488;23;20025;-87
2021/12/14 01:57:26;;;;;;;231.20;22.55;;;4.30;99.90;;;;;;6213716;23;20035;-88
2021/12/14 02:00:21;;;;;;;149.95;19.27;;;4.20;99.90;;;;;;6191361;23;20024;-87
2021/12/14 02:03:11;;;;;;;108.80;18.58;;;4.20;99.90;;;;;;6193156;23;20025;-88
2021/12/14 02:05:59;;;;;;;127.63;18.48;;;4.10;99.90;;;;;;6194219;23;20028;-87
2021/12/14 02:08:55;;;;;;;179.45;20.35;;;4.00;99.90;;;;;;6195997;23;20090;-88
2021/12/14 02:11:48;;;;;;;417.48;31.38;;;4.00;99.90;;;;;;6193423;23;20024;-91
2021/12/14 02:14:36;;;;;;;637.55;40.35;;;3.90;99.90;;;;;;6214933;23;20104;-90
2021/12/14 02:17:24;;;;;;;816.53;53.17;;;3.80;99.90;;;;;;6196502;23;20105;-89
2021/12/14 02:20:14;;;;;;;250.75;22.65;;;3.80;99.90;;;;;;6195565;23;20135;-87
2021/12/14 02:23:02;;;;;;;189.30;20.70;;;3.80;99.90;;;;;;6194625;23;20032;-88
2021/12/14 02:25:52;;;;;;;205.10;20.88;;;3.80;99.90;;;;;;6223472;23;20077;-89
2021/12/14 02:28:39;;;;;;;190.43;18.30;;;3.80;99.90;;;;;;6195880;23;20060;-88
2021/12/14 02:31:28;;;;;;;108.00;17.33;;;3.80;99.90;;;;;;6193005;23;20055;-90
2021/12/14 02:34:15;;;;;;;76.03;15.88;;;3.80;99.90;;;;;;6194155;23;20376;-89
2021/12/14 02:37:03;;;;;;;89.50;15.88;;;3.80;99.90;;;;;;6197024;23;20021;-90
2021/12/14 02:40:03;;;;;;;126.68;17.25;;;3.90;99.90;;;;;;6153311;23;20024;-89
2021/12/14 02:42:53;;;;;;;90.07;16.70;;;3.90;99.90;;;;;;6176862;23;20031;-89
2021/12/14 02:45:41;;;;;;;103.53;16.80;;;3.80;99.90;;;;;;6194065;23;20033;-90
2021/12/14 02:48:28;;;;;;;91.22;14.80;;;3.80;99.90;;;;;;6220776;23;20036;-88
2021/12/14 02:51:37;;;;;;;105.28;15.20;;;3.80;99.90;;;;;;6217634;23;20028;-89
2021/12/14 02:54:39;;;;;;;72.82;14.27;;;3.80;99.90;;;;;;6192846;23;20040;-89
2021/12/14 02:57:33;;;;;;;153.27;15.70;;;3.70;99.90;;;;;;6196603;23;20032;-85
2021/12/14 03:00:24;;;;;;;114.07;16.92;;;3.70;99.90;;;;;;6196371;23;20063;-86
2021/12/14 03:03:18;;;;;;;117.22;15.43;;;3.70;99.90;;;;;;6215965;23;20028;-89
2021/12/14 03:06:10;;;;;;;91.88;14.18;;;3.60;99.90;;;;;;6193902;23;20041;-85
2021/12/14 03:09:09;;;;;;;104.97;14.43;;;3.60;99.90;;;;;;6195542;23;20036;-86
2021/12/14 03:11:56;;;;;;;124.45;16.67;;;3.60;99.90;;;;;;6195015;23;20025;-88
2021/12/14 03:14:55;;;;;;;85.93;14.95;;;3.60;99.90;;;;;;6174232;23;20020;-89
2021/12/14 03:17:46;;;;;;;136.27;14.73;;;3.50;99.90;;;;;;6215295;23;20032;-90
2021/12/14 03:20:46;;;;;;;98.80;12.32;;;3.50;99.90;;;;;;6214739;23;20025;-87
2021/12/14 03:23:45;;;;;;;218.45;20.30;;;3.40;99.90;;;;;;6216185;23;20025;-86
2021/12/14 03:26:37;;;;;;;357.88;26.92;;;3.40;99.90;;;;;;6215931;23;20126;-87
2021/12/14 03:29:30;;;;;;;486.42;32.92;;;3.40;99.90;;;;;;6218680;23;20100;-88
2021/12/14 03:32:17;;;;;;;131.00;16.58;;;3.30;99.90;;;;;;6194930;23;20028;-88
2021/12/14 03:35:05;;;;;;;250.93;20.48;;;3.30;99.90;;;;;;6214325;23;20024;-89
2021/12/14 03:38:09;;;;;;;173.38;17.05;;;3.30;99.90;;;;;;6196315;23;20035;-88
2021/12/14 03:41:15;;;;;;;205.20;20.58;;;3.30;99.90;;;;;;6198388;23;20024;-88
2021/12/14 03:44:07;;;;;;;128.98;15.80;;;3.20;99.90;;;;;;6198710;23;20016;-85
2021/12/14 03:46:57;;;;;;;;;;;3.20;99.90;;;;;;6222290;23;20024;-87
2021/12/14 03:49:58;;;;;;;265.23;18.17;;;3.10;99.90;;;;;;6199846;23;19916;-85
2021/12/14 03:52:46;;;;;;;181.40;17.67;;;3.10;99.90;;;;;;6200328;23;20043;-89
2021/12/14 03:55:42;;;;;;;518.60;38.83;;;3.00;99.90;;;;;;6219904;23;20036;-88
2021/12/14 03:58:36;;;;;;;125.97;13.43;;;3.00;99.90;;;;;;6200371;23;20074;-89
2021/12/14 04:01:34;;;;;;;172.05;16.45;;;2.90;99.90;;;;;;6228882;23;20039;-85
2021/12/14 04:04:28;;;;;;;189.75;16.85;;;2.80;99.90;;;;;;6212778;23;20123;-89
2021/12/14 04:07:17;;;;;;;202.27;15.00;;;2.80;99.90;;;;;;6238001;23;20025;-87
2021/12/14 04:10:12;;;;;;;307.23;22.13;;;2.80;99.90;;;;;;6215974;23;20080;-85
2021/12/14 04:13:00;;;;;;;196.85;16.38;;;2.80;99.90;;;;;;6238586;23;20009;-87
2021/12/14 04:15:49;;;;;;;205.20;19.20;;;2.80;99.90;;;;;;6217982;23;20072;-86
2021/12/14 04:18:38;;;;;;;758.40;48.78;;;2.70;99.90;;;;;;6216127;23;20151;-86
2021/12/14 04:21:35;;;;;;;913.22;58.60;;;2.70;99.90;;;;;;6239291;23;20012;-89
2021/12/14 04:24:27;;;;;;;643.72;44.03;;;2.70;99.90;;;;;;6205296;23;20024;-86
2021/12/14 04:27:24;;;;;;;604.85;41.50;;;2.70;99.90;;;;;;6201493;23;20403;-87
2021/12/14 04:30:17;;;;;;;969.08;62.55;;;2.70;99.90;;;;;;6227208;23;20044;-87
2021/12/14 04:33:12;;;;;;;800.65;54.53;;;2.60;99.90;;;;;;6210978;23;20032;-85
2021/12/14 04:36:03;;;;;;;553.55;40.55;;;2.60;99.90;;;;;;6216420;23;20112;-87
2021/12/14 04:39:05;;;;;;;691.20;41.40;;;2.50;99.90;;;;;;6205068;23;20730;-89
2021/12/14 04:51:57;;;;;;;517.47;32.95;;;2.50;99.90;;;;;;6229132;23;20088;-88
2021/12/14 04:52:16;;;;;;;602.33;38.67;;;2.40;99.90;;;;;;6205642;23;20039;-87
2021/12/14 04:55:08;;;;;;;488.38;27.80;;;2.40;99.90;;;;;;6196115;23;20035;-86
2021/12/14 04:57:55;;;;;;;242.05;19.95;;;2.40;99.90;;;;;;6195622;23;20051;-89
2021/12/14 05:00:47;;;;;;;258.38;19.52;;;2.40;99.90;;;;;;6176996;23;20025;-87
2021/12/14 05:03:55;;;;;;;229.10;17.38;;;2.50;99.90;;;;;;6199197;23;20024;-87
2021/12/14 05:06:54;;;;;;;301.73;24.30;;;2.50;99.90;;;;;;6214127;23;20035;-87
2021/12/14 05:09:42;;;;;;;225.70;20.33;;;2.50;99.90;;;;;;6175873;23;20350;-88
2021/12/14 05:12:33;;;;;;;368.90;25.08;;;2.50;99.90;;;;;;6179091;23;20025;-88
2021/12/14 05:15:20;;;;;;;582.13;38.10;;;2.50;99.90;;;;;;6198140;23;20032;-89
2021/12/14 05:18:14;;;;;;;235.25;21.40;;;2.50;99.90;;;;;;6176718;23;20028;-87
2021/12/14 05:21:02;;;;;;;551.38;35.80;;;2.50;99.90;;;;;;6218785;23;20083;-86
2021/12/14 05:23:51;;;;;;;100.45;17.38;;;2.50;99.90;;;;;;6218183;23;20016;-89
2021/12/14 05:26:40;;;;;;;81.57;16.75;;;2.50;99.90;;;;;;6199960;23;20032;-89
2021/12/14 05:29:29;;;;;;;71.85;18.55;;;2.50;99.90;;;;;;6219489;23;20036;-88
2021/12/14 05:32:18;;;;;;;78.03;19.05;;;2.50;99.90;;;;;;6196263;23;20047;-85
2021/12/14 05:46:11;;;;;;;86.10;22.40;;;2.30;99.90;;;;;;6216802;23;20117;-86
2021/12/14 05:49:01;;;;;;;97.40;23.77;;;2.20;99.90;;;;;;6195461;23;20406;-87
2021/12/14 05:51:50;;;;;;;101.10;23.58;;;2.20;99.90;;;;;;6194397;23;20367;-88
2021/12/14 05:55:01;;;;;;;109.53;25.67;;;2.10;99.90;;;;;;6195603;23;20028;-88
2021/12/14 05:57:48;;;;;;;98.88;25.40;;;2.10;99.90;;;;;;6214249;23;20121;-87
2021/12/14 06:00:43;;;;;;;114.07;26.10;;;2.10;99.90;;;;;;6216687;22;20047;-87
2021/12/14 06:03:41;;;;;;;92.38;26.40;;;2.00;99.90;;;;;;6194890;23;20024;-87
2021/12/14 06:06:39;;;;;;;91.63;26.42;;;2.00;99.90;;;;;;6197804;23;20051;-87
2021/12/14 06:09:33;;;;;;;99.05;24.88;;;2.00;99.90;;;;;;6195889;23;20048;-87
2021/12/14 06:12:27;;;;;;;98.15;25.50;;;1.90;99.90;;;;;;6195282;23;20032;-87
2021/12/14 06:15:21;;;;;;;98.63;26.27;;;1.90;99.90;;;;;;6195764;23;20375;-88
2021/12/14 06:18:13;;;;;;;75.45;23.45;;;1.80;99.90;;;;;;6193149;23;20052;-87
2021/12/14 06:21:01;;;;;;;80.30;26.88;;;1.80;99.90;;;;;;6212544;23;20162;-87
2021/12/14 06:24:01;;;;;;;81.85;25.40;;;1.80;99.90;;;;;;6216760;23;20024;-88
2021/12/14 06:26:52;;;;;;;86.15;26.40;;;1.80;99.90;;;;;;6194128;23;20130;-88
2021/12/14 06:29:53;;;;;;;77.40;27.65;;;1.80;99.90;;;;;;6177068;23;20099;-86
2021/12/14 06:32:52;;;;;;;63.72;23.95;;;1.70;99.90;;;;;;6215591;23;20120;-88
2021/12/14 06:48:42;;;;;;;;;;;;;;;;;;;;;
2021/12/14 06:52:05;;;;;;;66.40;26.33;;;1.60;99.90;;;;;;6073002;23;20110;-86
2021/12/14 06:59:27;;;;;;;;;;;;;;;;;;;;;
2021/12/14 07:03:12;;;;;;;74.15;28.00;;;1.70;99.90;;;;;;5822083;24;20027;-85
2021/12/14 07:05:57;;;;;;;68.18;27.65;;;1.70;99.90;;;;;;5802506;24;20599;-86
2021/12/14 07:17:41;;;;;;;;;;;;;;;;;;;;;
2021/12/14 07:20:41;;;;;;;69.82;27.45;;;1.80;99.90;;;;;;5968196;23;20020;-83
2021/12/14 07:23:35;;;;;;;77.93;38.28;;;1.70;99.90;;;;;;6007415;23;20064;-81
2021/12/14 07:55:44;;;;;;;41.50;20.55;;;2.60;99.90;;;;;;6112911;23;20090;-86
2021/12/14 07:58:42;;;;;;;36.42;19.95;;;2.80;99.90;;;;;;6097719;23;20056;-89
2021/12/14 08:01:46;;;;;;;25.77;15.20;;;2.90;99.90;;;;;;6155866;23;20022;-86
2021/12/14 08:04:43;;;;;;;26.92;16.10;;;2.90;99.90;;;;;;6160025;23;20047;-83
2021/12/14 08:07:48;;;;;;;26.75;14.77;;;2.90;99.90;;;;;;6155163;23;20100;-87
2021/12/14 08:10:41;;;;;;;29.02;15.40;;;2.90;99.90;;;;;;6156199;23;20064;-85
2021/12/14 08:13:31;;;;;;;27.40;15.73;;;2.90;99.90;;;;;;6156265;23;20417;-86
2021/12/14 08:16:20;;;;;;;24.17;13.70;;;3.00;99.90;;;;;;6156018;23;20033;-86
2021/12/14 08:19:33;;;;;;;19.75;12.95;;;3.00;99.90;;;;;;6156134;23;20025;-83
2021/12/14 08:22:31;;;;;;;19.58;12.45;;;3.00;99.90;;;;;;6153926;23;20021;-86
2021/12/14 08:25:28;;;;;;;20.98;13.63;;;3.10;99.90;;;;;;6156593;23;20085;-86
2021/12/14 08:28:18;;;;;;;17.52;12.13;;;3.10;99.90;;;;;;6156075;23;20025;-87
2021/12/14 08:32:00;;;;;;;17.10;11.00;;;3.20;99.90;;;;;;6156898;23;20484;-90
2021/12/14 08:34:56;;;;;;;17.13;12.43;;;3.20;99.90;;;;;;6154964;23;20025;-85
2021/12/14 08:37:58;;;;;;;15.20;9.35;;;3.30;99.90;;;;;;6134711;23;20328;-86
2021/12/14 08:40:52;;;;;;;13.07;9.00;;;3.20;99.90;;;;;;6153878;23;20097;-87
2021/12/14 08:43:47;;;;;;;11.35;7.88;;;3.30;99.90;;;;;;6153852;23;20021;-84
2021/12/14 08:47:08;;;;;;;12.65;8.82;;;3.40;99.90;;;;;;6156532;23;20047;-86
2021/12/14 08:50:01;;;;;;;17.30;8.13;;;3.50;99.90;;;;;;6155853;23;20045;-85
2021/12/14 08:52:51;;;;;;;10.32;7.90;;;3.50;99.90;;;;;;6155018;23;20044;-84
2021/12/14 08:55:43;;;;;;;9.35;7.47;;;3.50;99.90;;;;;;6171348;23;20506;-87
2021/12/14 08:58:30;;;;;;;8.00;5.22;;;3.70;99.90;;;;;;6196637;23;20076;-86
2021/12/14 09:01:26;;;;;;;8.05;6.15;;;3.90;99.90;;;;;;6197315;23;20017;-86
2021/12/14 09:04:29;;;;;;;9.63;6.07;;;4.00;99.90;;;;;;6195331;23;20055;-87
2021/12/14 09:07:22;;;;;;;10.77;5.45;;;4.20;99.90;;;;;;6195518;23;20025;-87
2021/12/14 09:10:40;;;;;;;;;;;;;;;;;;;;;
2021/12/14 09:13:33;;;;;;;6.82;4.30;;;4.60;99.90;;;;;;6215543;23;20035;-85
2021/12/14 09:16:26;;;;;;;5.45;4.18;;;4.80;99.90;;;;;;6178836;23;20020;-86
2021/12/14 09:19:39;;;;;;;5.45;3.80;;;5.10;99.90;;;;;;6197532;23;20106;-84
2021/12/14 09:22:34;;;;;;;4.95;4.25;;;5.30;99.90;;;;;;6214828;23;20150;-84
2021/12/14 09:25:26;;;;;;;4.78;4.00;;;6.00;99.90;;;;;;6207145;23;20051;-86
2021/12/14 09:28:25;;;;;;;;;;;;;;;;;;;;;
2021/12/14 09:31:23;;;;;;;6.55;4.90;;;7.20;99.90;;;;;;6234372;23;20108;-88
2021/12/14 09:34:13;;;;;;;8.32;3.47;;;8.00;99.90;;;;;;6216406;23;20015;-88
2021/12/14 09:37:07;;;;;;;4.82;3.00;;;8.40;99.90;;;;;;6218620;23;20066;-87
2021/12/14 09:40:01;;;;;;;4.03;2.75;;;8.30;99.90;;;;;;6219041;23;20028;-88
2021/12/14 09:42:55;;;;;;;3.72;2.85;;;8.80;99.90;;;;;;6216902;23;20016;-86
2021/12/14 09:51:27;;;;;;;2.58;2.17;;;9.80;99.90;;;;;;6067044;23;20049;-87
2021/12/14 09:54:21;;;;;;;2.42;2.22;;;9.60;99.90;;;;;;6061639;23;20042;-86
2021/12/14 09:57:31;;;;;;;2.70;2.40;;;9.60;99.90;;;;;;6064324;23;20118;-86
2021/12/14 10:00:31;;;;;;;3.88;2.22;;;9.80;99.90;;;;;;6047557;23;20116;-87
2021/12/14 10:03:19;;;;;;;2.47;2.20;;;9.80;99.90;;;;;;6151785;23;20555;-87
2021/12/14 10:06:10;;;;;;;4.32;2.33;;;10.40;99.90;;;;;;6171738;23;20084;-86
2021/12/14 10:09:05;;;;;;;2.00;1.90;;;11.00;99.90;;;;;;6193110;23;20029;-87
2021/12/14 10:15:11;;;;;;;2.17;1.77;;;10.90;99.90;;;;;;6214385;23;20032;-86
2021/12/14 10:18:08;;;;;;;3.83;2.30;;;10.50;99.90;;;;;;6211245;23;20436;-85
2021/12/14 10:21:15;;;;;;;2.88;2.20;;;10.50;99.90;;;;;;6214972;23;20032;-86
2021/12/14 10:24:07;;;;;;;4.35;3.10;;;10.20;99.90;;;;;;6194135;23;20071;-88
2021/12/14 10:27:03;;;;;;;3.53;2.72;;;9.60;99.90;;;;;;6215655;23;20036;-85
2021/12/14 10:29:55;;;;;;;4.70;3.10;;;9.40;99.90;;;;;;6193308;23;20090;-86
2021/12/14 10:32:49;;;;;;;4.85;3.08;;;9.20;99.90;;;;;;6194768;23;20035;-90
2021/12/14 10:43:54;;;;;;;4.38;3.30;;;9.30;99.90;;;;;;5884355;24;20106;-89
2021/12/14 11:02:38;;;;;;;;;;;;;;;;;;;;;
2021/12/14 11:06:13;;;;;;;7.32;3.92;;;12.00;99.90;;;;;;5904980;24;20032;-90
2021/12/14 11:24:25;;;;;;;;;;;;;;;;;;;;;
2021/12/14 11:40:32;;;;;;;2.67;1.98;;;13.60;99.90;;;;;;6108825;23;20162;-88
2021/12/14 11:43:56;;;;;;;;;;;;;;;;;;;;;
2021/12/14 11:48:00;;;;;;;;;;;;;;;;;;;;;
2021/12/14 11:51:10;;;;;;;3.22;1.88;;;14.80;94.10;;;;;;5949264;24;20468;-87
2021/12/14 11:54:21;;;;;;;4.07;1.92;;;15.50;90.00;;;;;;5959740;23;20382;-90
2021/12/14 11:57:30;;;;;;;2.72;1.60;;;16.50;82.10;;;;;;6020710;23;20044;-88
2021/12/14 12:12:28;;;;;;;2.28;1.85;;;18.80;65.70;;;;;;6093868;23;20026;-88
2021/12/14 12:19:31;;;;;;;2.50;1.95;;;17.20;69.70;;;;;;6219653;23;20024;-89
2021/12/14 12:23:27;;;;;;;;;;;;;;;;;;;;;
2021/12/14 12:26:37;;;;;;;3.17;2.42;;;16.40;72.00;;;;;;6220489;23;20028;-86
2021/12/14 12:29:45;;;;;;;3.38;1.90;;;15.30;75.80;;;;;;6216917;22;20115;-89
2021/12/14 12:32:46;;;;;;;3.90;2.28;;;14.70;78.70;;;;;;6215598;23;20052;-89
2021/12/14 12:36:34;;;;;;;;;;;;;;;;;;;;;
2021/12/14 12:43:50;;;;;;;;;;;;;;;;;;;;;
2021/12/14 12:46:59;;;;;;;3.10;2.33;;;13.30;91.50;;;;;;6140256;23;19917;-88
2021/12/14 12:50:43;;;;;;;2.73;2.17;;;13.20;91.60;;;;;;6131376;23;20033;-92
2021/12/14 12:58:44;;;;;;;;;;;;;;;;;;;;;
2021/12/14 13:09:07;;;;;;;3.78;2.45;;;12.80;94.10;;;;;;5880524;24;20024;-89
2021/12/14 13:12:40;;;;;;;5.43;2.25;;;12.40;95.90;;;;;;5995086;23;20019;-88
2021/12/14 13:16:02;;;;;;;3.60;2.25;;;12.20;96.70;;;;;;6018756;23;20391;-89
2021/12/14 13:19:11;;;;;;;3.20;2.40;;;12.30;97.70;;;;;;6033609;23;20067;-87
2021/12/14 13:22:00;;;;;;;3.28;2.60;;;12.20;98.30;;;;;;6035536;23;20027;-86
2021/12/14 13:24:51;;;;;;;3.60;2.30;;;12.30;99.20;;;;;;6034950;23;20359;-88
2021/12/14 13:27:40;;;;;;;3.10;2.40;;;12.60;98.10;;;;;;6095105;23;20039;-88
2021/12/14 13:30:30;;;;;;;4.07;2.20;;;13.00;97.30;;;;;;6215219;22;20024;-88
2021/12/14 13:33:35;;;;;;;4.05;2.38;;;13.10;95.90;;;;;;6211064;23;20044;-87
2021/12/14 13:36:23;;;;;;;12.63;3.08;;;12.70;97.10;;;;;;6193487;23;20040;-86
2021/12/14 13:39:12;;;;;;;2.25;1.95;;;12.40;99.10;;;;;;6214585;22;20368;-85
2021/12/14 13:42:00;;;;;;;3.22;2.30;;;11.90;99.90;;;;;;6214251;22;20111;-86
2021/12/14 13:44:50;;;;;;;2.65;2.38;;;11.50;99.90;;;;;;6211004;23;20028;-86
2021/12/14 13:47:38;;;;;;;4.30;2.72;;;11.50;99.90;;;;;;6193433;23;20055;-86
2021/12/14 13:50:38;;;;;;;4.28;2.47;;;11.40;99.90;;;;;;6214324;23;20119;-87
2021/12/14 13:53:28;;;;;;;4.28;2.53;;;11.30;99.90;;;;;;6212591;23;20028;-88
2021/12/14 13:56:32;;;;;;;3.35;2.75;;;11.10;99.90;;;;;;6214698;23;20029;-89
2021/12/14 13:59:24;;;;;;;7.20;2.80;;;10.90;99.90;;;;;;6215095;23;20047;-89
2021/12/14 14:02:12;;;;;;;8.23;3.70;;;10.60;99.90;;;;;;6194727;23;20036;-89
2021/12/14 14:05:04;;;;;;;8.95;3.83;;;10.40;99.90;;;;;;6194060;23;20063;-87
2021/12/14 14:07:59;;;;;;;12.48;5.78;;;10.40;99.90;;;;;;6217821;22;20040;-87
2021/12/14 14:11:03;;;;;;;10.73;5.95;;;10.30;99.90;;;;;;6220694;22;20044;-89
2021/12/14 14:13:55;;;;;;;12.45;5.95;;;10.10;99.90;;;;;;6231786;22;20063;-86
2021/12/14 14:16:54;;;;;;;11.50;6.75;;;9.90;99.90;;;;;;6230092;23;20327;-86
2021/12/14 14:19:49;;;;;;;10.75;6.82;;;9.90;99.90;;;;;;6237357;23;20044;-88
2021/12/14 14:30:23;;;;;;;12.27;8.30;;;9.70;99.90;;;;;;6237530;23;20012;-87
2021/12/14 14:33:26;;;;;;;12.20;7.85;;;9.60;99.90;;;;;;6239754;23;20056;-87
2021/12/14 14:36:35;;;;;;;13.82;8.82;;;9.50;99.90;;;;;;6240687;22;20017;-88
2021/12/14 14:40:04;;;;;;;14.30;9.30;;;9.30;99.90;;;;;;6240732;23;20012;-88
2021/12/14 14:43:17;;;;;;;;;;;;;;;;;;;;;
2021/12/14 14:46:13;;;;;;;15.05;9.55;;;8.90;99.90;;;;;;6227376;23;20048;-88
2021/12/14 14:49:46;;;;;;;22.58;10.27;;;8.50;99.90;;;;;;6127988;23;20058;-90
2021/12/14 14:53:08;;;;;;;17.65;11.30;;;8.30;99.90;;;;;;6108289;23;20026;-88
2021/12/14 14:56:18;;;;;;;15.63;11.02;;;7.90;99.90;;;;;;6109348;23;20104;-90
2021/12/14 14:59:41;;;;;;;20.10;11.43;;;7.60;99.90;;;;;;6128834;23;20433;-88
2021/12/14 15:02:49;;;;;;;17.13;10.80;;;7.40;99.90;;;;;;6108830;23;20039;-88
2021/12/14 15:05:48;;;;;;;15.50;11.35;;;7.20;99.90;;;;;;6103256;23;20033;-88
2021/12/14 15:08:56;;;;;;;24.92;12.13;;;6.90;99.90;;;;;;6212830;23;20312;-88
2021/12/14 15:11:50;;;;;;;20.80;13.32;;;6.70;99.90;;;;;;6213455;23;20024;-87
2021/12/14 15:14:42;;;;;;;21.77;13.98;;;6.40;99.90;;;;;;6216862;23;20340;-88
2021/12/14 15:17:43;;;;;;;24.95;15.07;;;6.30;99.90;;;;;;6215849;23;20083;-87
2021/12/14 15:20:39;;;;;;;23.65;14.55;;;6.20;99.90;;;;;;6213399;23;20071;-86
2021/12/14 15:23:37;;;;;;;23.50;15.23;;;6.10;99.90;;;;;;6211438;23;20032;-86
2021/12/14 15:26:27;;;;;;;23.65;15.15;;;6.10;99.90;;;;;;6211860;23;20486;-90
2021/12/14 15:29:32;;;;;;;23.52;14.95;;;6.10;99.90;;;;;;6194061;23;20056;-88
2021/12/14 15:32:41;;;;;;;34.15;16.60;;;6.10;99.90;;;;;;6210031;23;20040;-85
2021/12/14 15:36:07;;;;;;;25.40;15.25;;;6.00;99.90;;;;;;6106862;23;20021;-87
2021/12/14 15:39:03;;;;;;;24.10;15.57;;;6.10;99.90;;;;;;6100405;23;20149;-87
2021/12/14 15:41:51;;;;;;;25.88;15.02;;;6.00;99.90;;;;;;6121750;23;20044;-87
2021/12/14 15:44:41;;;;;;;28.58;15.50;;;6.00;99.90;;;;;;6123384;23;20129;-86
2021/12/14 15:47:31;;;;;;;21.60;15.05;;;6.10;99.90;;;;;;6125528;23;20117;-88
2021/12/14 15:50:22;;;;;;;23.65;14.65;;;6.10;99.90;;;;;;6103349;23;20090;-87
2021/12/14 15:53:27;;;;;;;27.02;16.13;;;6.10;99.90;;;;;;6103562;23;20030;-86
2021/12/14 15:56:51;;;;;;;30.00;16.35;;;6.10;99.90;;;;;;6103192;23;20104;-86
2021/12/14 15:59:42;;;;;;;30.67;16.02;;;6.10;99.90;;;;;;6083892;23;20104;-89
2021/12/14 16:02:35;;;;;;;;;;;6.10;99.90;;;;;;6102864;23;20030;-86
2021/12/14 16:05:25;;;;;;;31.75;18.95;;;6.00;99.90;;;;;;6140116;23;20274;-87
2021/12/14 16:08:15;;;;;;;35.38;19.60;;;6.00;99.90;;;;;;6193867;23;20047;-89
2021/12/14 16:11:19;;;;;;;33.70;20.38;;;6.00;99.90;;;;;;6214678;23;20040;-86
2021/12/14 16:17:21;;;;;;;38.85;22.48;;;5.90;99.90;;;;;;6215466;23;20104;-87
2021/12/14 16:20:16;;;;;;;37.00;22.30;;;5.80;99.90;;;;;;6214300;23;20035;-88
2021/12/14 16:23:19;;;;;;;42.78;24.40;;;5.80;99.90;;;;;;6216150;23;20028;-87
2021/12/14 16:26:11;;;;;;;45.17;23.67;;;5.70;99.90;;;;;;6217804;22;20073;-88
2021/12/14 16:29:05;;;;;;;42.55;23.92;;;5.60;99.90;;;;;;6215928;23;20028;-88
2021/12/14 16:31:58;;;;;;;;;;;5.60;99.90;;;;;;6217012;23;20524;-85
2021/12/14 16:35:03;;;;;;;38.08;22.00;;;5.50;99.90;;;;;;6216674;22;20276;-88
2021/12/14 16:37:50;;;;;;;34.50;21.33;;;5.50;99.90;;;;;;6215140;23;20025;-87
2021/12/14 16:40:38;;;;;;;37.75;21.20;;;5.40;99.90;;;;;;6214899;23;20021;-85
2021/12/14 16:43:41;;;;;;;30.33;19.33;;;5.40;99.90;;;;;;6215171;23;20059;-87
2021/12/14 16:46:35;;;;;;;32.70;19.88;;;5.40;99.90;;;;;;6216724;22;20043;-87
2021/12/14 16:49:30;;;;;;;31.85;18.77;;;5.40;99.90;;;;;;6216489;23;20055;-87
2021/12/14 16:52:31;;;;;;;30.60;19.05;;;5.30;99.90;;;;;;6215567;23;20033;-89
2021/12/14 16:55:24;;;;;;;31.50;19.90;;;5.30;99.90;;;;;;6214918;23;20024;-86
2021/12/14 16:58:15;;;;;;;31.77;19.92;;;5.30;99.90;;;;;;6214857;23;20031;-86
2021/12/14 17:01:10;;;;;;;31.05;20.50;;;5.30;99.90;;;;;;6214468;23;20293;-86
2021/12/14 17:04:04;;;;;;;31.58;19.55;;;5.30;99.90;;;;;;6216788;23;20035;-90
2021/12/14 17:06:54;;;;;;;35.83;20.58;;;5.20;99.90;;;;;;6219806;22;20017;-89
2021/12/14 17:09:42;;;;;;;31.33;18.98;;;5.20;99.90;;;;;;6216669;23;20025;-88
2021/12/14 17:12:30;;;;;;;35.25;19.23;;;5.20;99.90;;;;;;6215415;23;20032;-87
2021/12/14 17:15:32;;;;;;;32.47;20.10;;;5.20;99.90;;;;;;6216333;22;20042;-86
2021/12/14 17:18:35;;;;;;;35.50;19.63;;;5.20;99.90;;;;;;6216484;23;20029;-86
2021/12/14 17:21:44;;;;;;;32.00;19.35;;;5.10;99.90;;;;;;6218559;23;20037;-87
2021/12/14 17:24:38;;;;;;;32.35;18.63;;;5.10;99.90;;;;;;6229882;23;20104;-87
2021/12/14 17:27:32;;;;;;;29.98;17.45;;;5.10;99.90;;;;;;6231799;23;20031;-88
2021/12/14 17:30:30;;;;;;;27.75;17.13;;;5.10;99.90;;;;;;6231255;22;20058;-84
2021/12/14 17:33:30;;;;;;;32.58;18.30;;;5.10;99.90;;;;;;6229163;23;20028;-84
2021/12/14 17:36:20;;;;;;;26.67;15.70;;;5.00;99.90;;;;;;6233125;23;20016;-87
2021/12/14 17:39:19;;;;;;;27.27;16.67;;;5.00;99.90;;;;;;6240039;22;20032;-86
2021/12/14 17:42:12;;;;;;;26.52;15.45;;;5.00;99.90;;;;;;6237684;23;20022;-87
2021/12/14 17:45:09;;;;;;;26.55;15.35;;;5.00;99.90;;;;;;6237270;23;20035;-89
2021/12/14 17:47:58;;;;;;;26.20;15.27;;;4.90;99.90;;;;;;6226647;23;20025;-87
2021/12/14 17:50:55;;;;;;;25.73;15.85;;;4.90;99.90;;;;;;6215624;23;20043;-87
2021/12/14 17:53:43;;;;;;;25.85;15.70;;;4.90;99.90;;;;;;6216600;23;20032;-87
2021/12/14 17:56:36;;;;;;;26.35;15.60;;;4.90;99.90;;;;;;6218948;23;20012;-88
2021/12/14 17:59:58;;;;;;;26.42;14.93;;;4.90;99.90;;;;;;6238475;23;20028;-91
2021/12/14 18:03:09;;;;;;;24.10;14.95;;;5.00;99.90;;;;;;6208309;23;20039;-91
2021/12/14 18:06:16;;;;;;;20.45;12.98;;;5.00;99.90;;;;;;6213409;23;20017;-90
2021/12/14 18:09:59;;;;;;;23.80;14.40;;;4.90;99.90;;;;;;6127052;23;20025;-91
2021/12/14 18:13:29;;;;;;;;;;;;;;;;;;;;;
2021/12/14 18:17:38;;;;;;;;;;;;;;;;;;;;;
2021/12/14 18:21:19;;;;;;;24.67;13.50;;;4.90;99.90;;;;;;5941945;24;20378;-89
2021/12/14 18:25:08;;;;;;;;;;;;;;;;;;;;;
2021/12/14 18:28:27;;;;;;;23.23;14.20;;;4.90;99.90;;;;;;5984497;24;20055;-89
2021/12/14 18:32:38;;;;;;;;;;;;;;;;;;;;;
2021/12/14 18:44:42;;;;;;;;;;;;;;;;;;;;;
2021/12/14 18:51:41;;;;;;;;;;;;;;;;;;;;;
2021/12/14 18:55:27;;;;;;;21.73;14.02;;;4.90;99.90;;;;;;6052577;23;20103;-88
2021/12/14 18:58:26;;;;;;;20.70;13.57;;;4.90;99.90;;;;;;6116140;23;20057;-90
2021/12/14 19:01:34;;;;;;;22.40;13.00;;;4.90;99.90;;;;;;6083195;23;20401;-89